sensor_id;sensor_type;location;lat;lon;timestamp;P1;durP1;ratioP1;P2;durP2;ratioP2
67028;SDS011;53934;52.142;11.738;2022-11-25T00:00:00;17.02;;;11.23;;
67028;SDS011;53934;52.142;11.738;2022-11-25T00:02:27;22.08;;;11.18;;
67028;SDS011;53934;52.142;11.738;2022-11-25T00:04:53;23.55;;;11.57;;
67028;SDS011;53934;52.142;11.738;2022-11-25T00:07:20;23.27;;;10.70;;
67028;SDS011;53934;52.142;11.738;2022-11-25T00:09:48;19.00;;;11.18;;
67028;SDS011;53934;52.142;11.738;2022-11-25T00:12:14;18.63;;;11.15;;
67028;SDS011;53934;52.142;11.738;2022-11-25T00:14:40;15.65;;;10.88;;
67028;SDS011;53934;52.142;11.738;2022-11-25T00:17:07;18.92;;;9.95;;
67028;SDS011;53934;52.142;11.738;2022-11-25T00:19:33;15.27;;;8.73;;
67028;SDS011;53934;52.142;11.738;2022-11-25T00:22:00;18.27;;;9.80;;
67028;SDS011;53934;52.142;11.738;2022-11-25T00:24:26;15.35;;;9.13;;
67028;SDS011;53934;52.142;11.738;2022-11-25T00:26:54;31.45;;;7.97;;
67028;SDS011;53934;52.142;11.738;2022-11-25T00:29:20;12.38;;;8.27;;
67028;SDS011;53934;52.142;11.738;2022-11-25T00:31:47;23.08;;;8.07;;
67028;SDS011;53934;52.142;11.738;2022-11-25T00:34:13;12.88;;;7.60;;
67028;SDS011;53934;52.142;11.738;2022-11-25T00:36:40;17.73;;;8.95;;
67028;SDS011;53934;52.142;11.738;2022-11-25T00:39:08;11.70;;;8.63;;
67028;SDS011;53934;52.142;11.738;2022-11-25T00:41:36;19.02;;;8.98;;
67028;SDS011;53934;52.142;11.738;2022-11-25T00:44:22;12.60;;;7.97;;
67028;SDS011;53934;52.142;11.738;2022-11-25T00:47:00;48.00;;;9.00;;
67028;SDS011;53934;52.142;11.738;2022-11-25T00:49:27;106.60;;;10.25;;
67028;SDS011;53934;52.142;11.738;2022-11-25T00:51:53;15.27;;;8.02;;
67028;SDS011;53934;52.142;11.738;2022-11-25T00:54:20;11.90;;;7.55;;
67028;SDS011;53934;52.142;11.738;2022-11-25T00:56:47;67.75;;;8.63;;
67028;SDS011;53934;52.142;11.738;2022-11-25T00:59:13;14.10;;;8.00;;
67028;SDS011;53934;52.142;11.738;2022-11-25T01:01:41;11.65;;;7.43;;
67028;SDS011;53934;52.142;11.738;2022-11-25T01:04:07;12.05;;;7.75;;
67028;SDS011;53934;52.142;11.738;2022-11-25T01:06:35;11.02;;;7.80;;
67028;SDS011;53934;52.142;11.738;2022-11-25T01:09:02;12.80;;;7.97;;
67028;SDS011;53934;52.142;11.738;2022-11-25T01:11:29;16.88;;;8.07;;
67028;SDS011;53934;52.142;11.738;2022-11-25T01:13:56;21.27;;;8.23;;
67028;SDS011;53934;52.142;11.738;2022-11-25T01:16:23;13.23;;;7.78;;
67028;SDS011;53934;52.142;11.738;2022-11-25T01:18:51;12.77;;;7.70;;
67028;SDS011;53934;52.142;11.738;2022-11-25T01:21:18;12.65;;;7.78;;
67028;SDS011;53934;52.142;11.738;2022-11-25T01:23:46;13.65;;;8.15;;
67028;SDS011;53934;52.142;11.738;2022-11-25T01:26:15;13.02;;;7.93;;
67028;SDS011;53934;52.142;11.738;2022-11-25T01:28:43;12.32;;;7.03;;
67028;SDS011;53934;52.142;11.738;2022-11-25T01:31:10;10.98;;;6.72;;
67028;SDS011;53934;52.142;11.738;2022-11-25T01:33:39;11.88;;;7.18;;
67028;SDS011;53934;52.142;11.738;2022-11-25T01:36:08;12.00;;;7.00;;
67028;SDS011;53934;52.142;11.738;2022-11-25T01:38:36;13.93;;;7.68;;
67028;SDS011;53934;52.142;11.738;2022-11-25T01:41:03;12.55;;;8.18;;
67028;SDS011;53934;52.142;11.738;2022-11-25T01:43:30;15.65;;;8.35;;
67028;SDS011;53934;52.142;11.738;2022-11-25T01:45:57;21.15;;;8.45;;
67028;SDS011;53934;52.142;11.738;2022-11-25T01:48:34;14.07;;;7.80;;
67028;SDS011;53934;52.142;11.738;2022-11-25T01:51:04;13.63;;;7.47;;
67028;SDS011;53934;52.142;11.738;2022-11-25T01:53:35;14.43;;;7.38;;
67028;SDS011;53934;52.142;11.738;2022-11-25T01:56:02;13.00;;;7.55;;
67028;SDS011;53934;52.142;11.738;2022-11-25T01:58:30;10.82;;;6.97;;
67028;SDS011;53934;52.142;11.738;2022-11-25T02:01:00;14.13;;;7.63;;
67028;SDS011;53934;52.142;11.738;2022-11-25T02:03:28;18.20;;;8.05;;
67028;SDS011;53934;52.142;11.738;2022-11-25T02:06:00;14.48;;;8.10;;
67028;SDS011;53934;52.142;11.738;2022-11-25T02:08:32;20.42;;;8.65;;
67028;SDS011;53934;52.142;11.738;2022-11-25T02:10:59;17.05;;;7.47;;
67028;SDS011;53934;52.142;11.738;2022-11-25T02:13:28;15.63;;;7.68;;
67028;SDS011;53934;52.142;11.738;2022-11-25T02:15:57;12.50;;;6.63;;
67028;SDS011;53934;52.142;11.738;2022-11-25T02:18:23;16.33;;;7.78;;
67028;SDS011;53934;52.142;11.738;2022-11-25T02:20:51;11.27;;;7.15;;
67028;SDS011;53934;52.142;11.738;2022-11-25T02:23:18;16.50;;;6.90;;
67028;SDS011;53934;52.142;11.738;2022-11-25T02:25:54;9.27;;;6.53;;
67028;SDS011;53934;52.142;11.738;2022-11-25T02:28:22;13.65;;;7.22;;
67028;SDS011;53934;52.142;11.738;2022-11-25T02:30:50;13.55;;;6.95;;
67028;SDS011;53934;52.142;11.738;2022-11-25T02:33:17;11.15;;;6.63;;
67028;SDS011;53934;52.142;11.738;2022-11-25T02:35:46;13.00;;;7.47;;
67028;SDS011;53934;52.142;11.738;2022-11-25T02:38:14;11.45;;;6.82;;
67028;SDS011;53934;52.142;11.738;2022-11-25T02:40:44;13.85;;;7.10;;
67028;SDS011;53934;52.142;11.738;2022-11-25T02:43:15;11.20;;;6.82;;
67028;SDS011;53934;52.142;11.738;2022-11-25T02:45:49;13.32;;;6.78;;
67028;SDS011;53934;52.142;11.738;2022-11-25T02:48:20;12.52;;;6.57;;
67028;SDS011;53934;52.142;11.738;2022-11-25T02:50:47;11.73;;;6.57;;
67028;SDS011;53934;52.142;11.738;2022-11-25T02:53:14;11.70;;;7.20;;
67028;SDS011;53934;52.142;11.738;2022-11-25T02:55:40;13.93;;;7.63;;
67028;SDS011;53934;52.142;11.738;2022-11-25T02:58:07;10.75;;;6.90;;
67028;SDS011;53934;52.142;11.738;2022-11-25T03:00:35;12.10;;;6.22;;
67028;SDS011;53934;52.142;11.738;2022-11-25T03:03:02;16.25;;;7.07;;
67028;SDS011;53934;52.142;11.738;2022-11-25T03:05:28;16.45;;;6.50;;
67028;SDS011;53934;52.142;11.738;2022-11-25T03:07:55;13.27;;;7.13;;
67028;SDS011;53934;52.142;11.738;2022-11-25T03:10:21;11.68;;;6.50;;
67028;SDS011;53934;52.142;11.738;2022-11-25T03:12:48;9.65;;;6.43;;
67028;SDS011;53934;52.142;11.738;2022-11-25T03:15:14;12.43;;;6.10;;
67028;SDS011;53934;52.142;11.738;2022-11-25T03:17:43;10.55;;;6.30;;
67028;SDS011;53934;52.142;11.738;2022-11-25T03:20:09;10.85;;;6.40;;
67028;SDS011;53934;52.142;11.738;2022-11-25T03:22:39;22.02;;;7.63;;
67028;SDS011;53934;52.142;11.738;2022-11-25T03:25:06;31.30;;;8.55;;
67028;SDS011;53934;52.142;11.738;2022-11-25T03:27:33;20.35;;;8.35;;
67028;SDS011;53934;52.142;11.738;2022-11-25T03:30:00;29.52;;;8.15;;
67028;SDS011;53934;52.142;11.738;2022-11-25T03:32:27;73.05;;;10.20;;
67028;SDS011;53934;52.142;11.738;2022-11-25T03:34:54;18.83;;;8.20;;
67028;SDS011;53934;52.142;11.738;2022-11-25T03:37:21;17.05;;;8.50;;
67028;SDS011;53934;52.142;11.738;2022-11-25T03:39:47;19.02;;;8.05;;
67028;SDS011;53934;52.142;11.738;2022-11-25T03:42:14;16.63;;;8.10;;
67028;SDS011;53934;52.142;11.738;2022-11-25T03:44:40;19.65;;;8.85;;
67028;SDS011;53934;52.142;11.738;2022-11-25T03:47:07;28.45;;;10.75;;
67028;SDS011;53934;52.142;11.738;2022-11-25T03:49:33;18.13;;;9.88;;
67028;SDS011;53934;52.142;11.738;2022-11-25T03:52:01;190.60;;;13.57;;
67028;SDS011;53934;52.142;11.738;2022-11-25T03:54:27;197.10;;;14.07;;
67028;SDS011;53934;52.142;11.738;2022-11-25T03:56:54;71.03;;;9.35;;
67028;SDS011;53934;52.142;11.738;2022-11-25T03:59:20;22.80;;;9.48;;
67028;SDS011;53934;52.142;11.738;2022-11-25T04:01:47;22.65;;;9.20;;
67028;SDS011;53934;52.142;11.738;2022-11-25T04:04:13;28.48;;;10.43;;
67028;SDS011;53934;52.142;11.738;2022-11-25T04:06:40;28.13;;;10.18;;
67028;SDS011;53934;52.142;11.738;2022-11-25T04:09:08;26.60;;;10.60;;
67028;SDS011;53934;52.142;11.738;2022-11-25T04:11:36;25.83;;;9.40;;
67028;SDS011;53934;52.142;11.738;2022-11-25T04:14:20;29.77;;;10.75;;
67028;SDS011;53934;52.142;11.738;2022-11-25T04:16:46;25.52;;;10.85;;
67028;SDS011;53934;52.142;11.738;2022-11-25T04:19:13;42.25;;;10.18;;
67028;SDS011;53934;52.142;11.738;2022-11-25T04:21:39;23.83;;;10.10;;
67028;SDS011;53934;52.142;11.738;2022-11-25T04:24:07;21.25;;;9.63;;
67028;SDS011;53934;52.142;11.738;2022-11-25T04:26:34;26.45;;;10.35;;
67028;SDS011;53934;52.142;11.738;2022-11-25T04:29:00;29.80;;;9.13;;
67028;SDS011;53934;52.142;11.738;2022-11-25T04:31:27;21.05;;;9.57;;
67028;SDS011;53934;52.142;11.738;2022-11-25T04:33:53;36.15;;;9.75;;
67028;SDS011;53934;52.142;11.738;2022-11-25T04:36:20;31.98;;;10.95;;
67028;SDS011;53934;52.142;11.738;2022-11-25T04:38:47;31.52;;;10.93;;
67028;SDS011;53934;52.142;11.738;2022-11-25T04:41:14;27.92;;;10.50;;
67028;SDS011;53934;52.142;11.738;2022-11-25T04:43:41;29.92;;;11.20;;
67028;SDS011;53934;52.142;11.738;2022-11-25T04:46:08;28.05;;;10.63;;
67028;SDS011;53934;52.142;11.738;2022-11-25T04:48:37;31.17;;;10.82;;
67028;SDS011;53934;52.142;11.738;2022-11-25T04:51:03;56.58;;;9.93;;
67028;SDS011;53934;52.142;11.738;2022-11-25T04:53:30;24.25;;;9.05;;
67028;SDS011;53934;52.142;11.738;2022-11-25T04:55:56;58.42;;;9.63;;
67028;SDS011;53934;52.142;11.738;2022-11-25T04:58:24;24.67;;;8.70;;
67028;SDS011;53934;52.142;11.738;2022-11-25T05:01:08;28.10;;;8.80;;
67028;SDS011;53934;52.142;11.738;2022-11-25T05:03:34;21.38;;;8.65;;
67028;SDS011;53934;52.142;11.738;2022-11-25T05:06:04;86.10;;;10.13;;
67028;SDS011;53934;52.142;11.738;2022-11-25T05:08:31;17.42;;;8.25;;
67028;SDS011;53934;52.142;11.738;2022-11-25T05:10:57;21.63;;;8.20;;
67028;SDS011;53934;52.142;11.738;2022-11-25T05:13:25;28.92;;;8.85;;
67028;SDS011;53934;52.142;11.738;2022-11-25T05:15:52;26.67;;;8.82;;
67028;SDS011;53934;52.142;11.738;2022-11-25T05:18:19;15.60;;;7.00;;
67028;SDS011;53934;52.142;11.738;2022-11-25T05:20:45;20.92;;;8.25;;
67028;SDS011;53934;52.142;11.738;2022-11-25T05:23:12;19.73;;;8.13;;
67028;SDS011;53934;52.142;11.738;2022-11-25T05:25:38;26.70;;;8.68;;
67028;SDS011;53934;52.142;11.738;2022-11-25T05:28:05;19.10;;;7.90;;
67028;SDS011;53934;52.142;11.738;2022-11-25T05:30:33;21.75;;;7.18;;
67028;SDS011;53934;52.142;11.738;2022-11-25T05:32:59;25.48;;;7.95;;
67028;SDS011;53934;52.142;11.738;2022-11-25T05:35:25;38.22;;;8.20;;
67028;SDS011;53934;52.142;11.738;2022-11-25T05:37:52;19.05;;;7.35;;
67028;SDS011;53934;52.142;11.738;2022-11-25T05:40:18;21.25;;;6.70;;
67028;SDS011;53934;52.142;11.738;2022-11-25T05:42:45;28.25;;;7.13;;
67028;SDS011;53934;52.142;11.738;2022-11-25T05:45:11;21.58;;;7.95;;
67028;SDS011;53934;52.142;11.738;2022-11-25T05:47:39;20.40;;;7.30;;
67028;SDS011;53934;52.142;11.738;2022-11-25T05:50:06;25.70;;;6.97;;
67028;SDS011;53934;52.142;11.738;2022-11-25T05:52:33;33.10;;;7.50;;
67028;SDS011;53934;52.142;11.738;2022-11-25T05:54:59;17.85;;;6.43;;
67028;SDS011;53934;52.142;11.738;2022-11-25T05:57:26;18.33;;;7.13;;
67028;SDS011;53934;52.142;11.738;2022-11-25T05:59:53;21.42;;;7.40;;
67028;SDS011;53934;52.142;11.738;2022-11-25T06:02:19;20.63;;;8.63;;
67028;SDS011;53934;52.142;11.738;2022-11-25T06:04:47;22.65;;;7.78;;
67028;SDS011;53934;52.142;11.738;2022-11-25T06:07:14;22.08;;;7.20;;
67028;SDS011;53934;52.142;11.738;2022-11-25T06:09:43;16.35;;;7.75;;
67028;SDS011;53934;52.142;11.738;2022-11-25T06:12:09;12.50;;;6.20;;
67028;SDS011;53934;52.142;11.738;2022-11-25T06:14:36;14.40;;;6.47;;
67028;SDS011;53934;52.142;11.738;2022-11-25T06:17:02;13.32;;;6.35;;
67028;SDS011;53934;52.142;11.738;2022-11-25T06:19:29;20.33;;;6.65;;
67028;SDS011;53934;52.142;11.738;2022-11-25T06:21:57;24.52;;;7.10;;
67028;SDS011;53934;52.142;11.738;2022-11-25T06:24:23;14.75;;;6.15;;
67028;SDS011;53934;52.142;11.738;2022-11-25T06:26:50;19.27;;;6.47;;
67028;SDS011;53934;52.142;11.738;2022-11-25T06:29:16;22.05;;;6.32;;
67028;SDS011;53934;52.142;11.738;2022-11-25T06:31:43;14.52;;;6.13;;
67028;SDS011;53934;52.142;11.738;2022-11-25T06:34:09;14.95;;;6.50;;
67028;SDS011;53934;52.142;11.738;2022-11-25T06:36:36;15.73;;;6.18;;
67028;SDS011;53934;52.142;11.738;2022-11-25T06:39:05;25.63;;;6.68;;
67028;SDS011;53934;52.142;11.738;2022-11-25T06:41:31;23.60;;;6.95;;
67028;SDS011;53934;52.142;11.738;2022-11-25T06:43:58;19.60;;;7.22;;
67028;SDS011;53934;52.142;11.738;2022-11-25T06:46:24;23.75;;;7.45;;
67028;SDS011;53934;52.142;11.738;2022-11-25T06:48:51;18.30;;;7.40;;
67028;SDS011;53934;52.142;11.738;2022-11-25T06:51:17;17.33;;;6.75;;
67028;SDS011;53934;52.142;11.738;2022-11-25T06:53:44;16.25;;;6.20;;
67028;SDS011;53934;52.142;11.738;2022-11-25T06:56:13;17.10;;;6.70;;
67028;SDS011;53934;52.142;11.738;2022-11-25T06:58:41;14.63;;;6.03;;
67028;SDS011;53934;52.142;11.738;2022-11-25T07:01:10;20.65;;;6.25;;
67028;SDS011;53934;52.142;11.738;2022-11-25T07:03:38;55.75;;;7.22;;
67028;SDS011;53934;52.142;11.738;2022-11-25T07:06:06;18.08;;;6.53;;
67028;SDS011;53934;52.142;11.738;2022-11-25T07:08:32;19.00;;;6.95;;
67028;SDS011;53934;52.142;11.738;2022-11-25T07:11:02;22.70;;;7.28;;
67028;SDS011;53934;52.142;11.738;2022-11-25T07:13:31;20.30;;;6.90;;
67028;SDS011;53934;52.142;11.738;2022-11-25T07:16:01;21.83;;;7.20;;
67028;SDS011;53934;52.142;11.738;2022-11-25T07:18:28;18.23;;;7.43;;
67028;SDS011;53934;52.142;11.738;2022-11-25T07:21:02;23.15;;;7.05;;
67028;SDS011;53934;52.142;11.738;2022-11-25T07:26:00;10.68;;;5.75;;
67028;SDS011;53934;52.142;11.738;2022-11-25T07:28:28;20.33;;;7.07;;
67028;SDS011;53934;52.142;11.738;2022-11-25T07:30:55;22.58;;;7.72;;
67028;SDS011;53934;52.142;11.738;2022-11-25T07:33:29;15.40;;;7.07;;
67028;SDS011;53934;52.142;11.738;2022-11-25T07:35:59;19.10;;;8.38;;
67028;SDS011;53934;52.142;11.738;2022-11-25T07:38:26;16.92;;;7.80;;
67028;SDS011;53934;52.142;11.738;2022-11-25T07:40:53;24.88;;;8.05;;
67028;SDS011;53934;52.142;11.738;2022-11-25T07:43:19;17.65;;;7.10;;
67028;SDS011;53934;52.142;11.738;2022-11-25T07:45:46;16.80;;;7.30;;
67028;SDS011;53934;52.142;11.738;2022-11-25T07:48:14;17.70;;;6.60;;
67028;SDS011;53934;52.142;11.738;2022-11-25T07:50:40;20.95;;;7.28;;
67028;SDS011;53934;52.142;11.738;2022-11-25T07:53:07;20.48;;;8.15;;
67028;SDS011;53934;52.142;11.738;2022-11-25T07:55:33;26.98;;;7.03;;
67028;SDS011;53934;52.142;11.738;2022-11-25T07:58:00;20.95;;;7.40;;
67028;SDS011;53934;52.142;11.738;2022-11-25T08:00:27;16.70;;;7.43;;
67028;SDS011;53934;52.142;11.738;2022-11-25T08:02:53;18.90;;;7.03;;
67028;SDS011;53934;52.142;11.738;2022-11-25T08:05:21;24.25;;;7.25;;
67028;SDS011;53934;52.142;11.738;2022-11-25T08:07:48;18.55;;;7.07;;
67028;SDS011;53934;52.142;11.738;2022-11-25T08:10:16;24.25;;;7.68;;
67028;SDS011;53934;52.142;11.738;2022-11-25T08:12:43;20.02;;;6.90;;
67028;SDS011;53934;52.142;11.738;2022-11-25T08:15:10;18.00;;;7.22;;
67028;SDS011;53934;52.142;11.738;2022-11-25T08:17:36;21.20;;;7.00;;
67028;SDS011;53934;52.142;11.738;2022-11-25T08:20:03;12.05;;;5.80;;
67028;SDS011;53934;52.142;11.738;2022-11-25T08:22:32;16.83;;;6.53;;
67028;SDS011;53934;52.142;11.738;2022-11-25T08:24:58;20.45;;;7.15;;
67028;SDS011;53934;52.142;11.738;2022-11-25T08:27:25;19.98;;;6.50;;
67028;SDS011;53934;52.142;11.738;2022-11-25T08:29:51;16.65;;;5.95;;
67028;SDS011;53934;52.142;11.738;2022-11-25T08:32:18;16.00;;;6.70;;
67028;SDS011;53934;52.142;11.738;2022-11-25T08:34:44;20.08;;;5.90;;
67028;SDS011;53934;52.142;11.738;2022-11-25T08:37:10;15.13;;;6.32;;
67028;SDS011;53934;52.142;11.738;2022-11-25T08:39:38;15.55;;;6.00;;
67028;SDS011;53934;52.142;11.738;2022-11-25T08:42:05;19.60;;;7.00;;
67028;SDS011;53934;52.142;11.738;2022-11-25T08:44:32;18.90;;;6.57;;
67028;SDS011;53934;52.142;11.738;2022-11-25T08:46:59;19.50;;;7.10;;
67028;SDS011;53934;52.142;11.738;2022-11-25T08:49:26;16.27;;;6.38;;
67028;SDS011;53934;52.142;11.738;2022-11-25T08:51:54;17.85;;;7.00;;
67028;SDS011;53934;52.142;11.738;2022-11-25T08:54:20;17.08;;;6.22;;
67028;SDS011;53934;52.142;11.738;2022-11-25T08:56:48;10.77;;;5.50;;
67028;SDS011;53934;52.142;11.738;2022-11-25T08:59:15;17.77;;;6.80;;
67028;SDS011;53934;52.142;11.738;2022-11-25T09:01:41;17.00;;;6.43;;
67028;SDS011;53934;52.142;11.738;2022-11-25T09:04:08;13.52;;;6.15;;
67028;SDS011;53934;52.142;11.738;2022-11-25T09:06:34;12.02;;;6.00;;
67028;SDS011;53934;52.142;11.738;2022-11-25T09:09:01;13.90;;;5.85;;
67028;SDS011;53934;52.142;11.738;2022-11-25T09:11:30;13.98;;;5.40;;
67028;SDS011;53934;52.142;11.738;2022-11-25T09:13:57;14.98;;;6.05;;
67028;SDS011;53934;52.142;11.738;2022-11-25T09:16:24;14.88;;;5.80;;
67028;SDS011;53934;52.142;11.738;2022-11-25T09:18:50;15.32;;;5.95;;
67028;SDS011;53934;52.142;11.738;2022-11-25T09:21:17;10.93;;;4.63;;
67028;SDS011;53934;52.142;11.738;2022-11-25T09:23:43;13.85;;;5.47;;
67028;SDS011;53934;52.142;11.738;2022-11-25T09:26:16;16.65;;;6.07;;
67028;SDS011;53934;52.142;11.738;2022-11-25T09:28:46;13.77;;;5.60;;
67028;SDS011;53934;52.142;11.738;2022-11-25T09:31:14;13.63;;;5.80;;
67028;SDS011;53934;52.142;11.738;2022-11-25T09:33:41;15.35;;;6.45;;
67028;SDS011;53934;52.142;11.738;2022-11-25T09:36:08;15.48;;;5.85;;
67028;SDS011;53934;52.142;11.738;2022-11-25T09:38:36;13.45;;;5.97;;
67028;SDS011;53934;52.142;11.738;2022-11-25T09:41:03;18.13;;;6.88;;
67028;SDS011;53934;52.142;11.738;2022-11-25T09:43:40;15.20;;;4.88;;
67028;SDS011;53934;52.142;11.738;2022-11-25T09:46:45;12.63;;;4.97;;
67028;SDS011;53934;52.142;11.738;2022-11-25T09:49:23;12.57;;;5.60;;
67028;SDS011;53934;52.142;11.738;2022-11-25T09:51:59;15.15;;;6.75;;
67028;SDS011;53934;52.142;11.738;2022-11-25T09:54:34;16.75;;;6.53;;
67028;SDS011;53934;52.142;11.738;2022-11-25T09:57:03;17.10;;;6.38;;
67028;SDS011;53934;52.142;11.738;2022-11-25T09:59:44;15.00;;;6.13;;
67028;SDS011;53934;52.142;11.738;2022-11-25T10:02:21;15.43;;;6.40;;
67028;SDS011;53934;52.142;11.738;2022-11-25T10:07:23;13.02;;;5.15;;
67028;SDS011;53934;52.142;11.738;2022-11-25T10:09:59;17.35;;;5.78;;
67028;SDS011;53934;52.142;11.738;2022-11-25T10:12:29;18.17;;;6.45;;
67028;SDS011;53934;52.142;11.738;2022-11-25T10:14:59;13.88;;;5.38;;
67028;SDS011;53934;52.142;11.738;2022-11-25T10:17:34;18.75;;;6.22;;
67028;SDS011;53934;52.142;11.738;2022-11-25T10:20:05;17.95;;;6.03;;
67028;SDS011;53934;52.142;11.738;2022-11-25T10:22:39;11.63;;;5.70;;
67028;SDS011;53934;52.142;11.738;2022-11-25T10:25:11;17.73;;;6.13;;
67028;SDS011;53934;52.142;11.738;2022-11-25T10:27:40;18.73;;;6.40;;
67028;SDS011;53934;52.142;11.738;2022-11-25T10:30:12;14.63;;;5.60;;
67028;SDS011;53934;52.142;11.738;2022-11-25T10:32:44;15.77;;;5.38;;
67028;SDS011;53934;52.142;11.738;2022-11-25T10:35:20;10.45;;;4.70;;
67028;SDS011;53934;52.142;11.738;2022-11-25T10:37:52;10.30;;;4.68;;
67028;SDS011;53934;52.142;11.738;2022-11-25T10:40:23;14.35;;;5.60;;
67028;SDS011;53934;52.142;11.738;2022-11-25T10:42:49;13.60;;;5.72;;
67028;SDS011;53934;52.142;11.738;2022-11-25T10:45:16;18.58;;;6.45;;
67028;SDS011;53934;52.142;11.738;2022-11-25T10:47:52;16.13;;;5.53;;
67028;SDS011;53934;52.142;11.738;2022-11-25T10:50:32;18.02;;;5.78;;
67028;SDS011;53934;52.142;11.738;2022-11-25T10:53:08;18.92;;;5.93;;
67028;SDS011;53934;52.142;11.738;2022-11-25T10:55:38;11.60;;;5.90;;
67028;SDS011;53934;52.142;11.738;2022-11-25T10:58:18;11.30;;;5.10;;
67028;SDS011;53934;52.142;11.738;2022-11-25T11:00:59;14.52;;;5.82;;
67028;SDS011;53934;52.142;11.738;2022-11-25T11:03:29;15.30;;;6.05;;
67028;SDS011;53934;52.142;11.738;2022-11-25T11:05:56;17.73;;;6.75;;
67028;SDS011;53934;52.142;11.738;2022-11-25T11:08:23;14.32;;;6.70;;
67028;SDS011;53934;52.142;11.738;2022-11-25T11:11:08;14.52;;;6.38;;
67028;SDS011;53934;52.142;11.738;2022-11-25T11:13:40;12.38;;;5.82;;
67028;SDS011;53934;52.142;11.738;2022-11-25T11:16:19;16.55;;;7.38;;
67028;SDS011;53934;52.142;11.738;2022-11-25T11:18:50;13.57;;;5.40;;
67028;SDS011;53934;52.142;11.738;2022-11-25T11:21:24;11.90;;;5.38;;
67028;SDS011;53934;52.142;11.738;2022-11-25T11:23:55;12.70;;;5.43;;
67028;SDS011;53934;52.142;11.738;2022-11-25T11:26:24;10.13;;;5.47;;
67028;SDS011;53934;52.142;11.738;2022-11-25T11:28:56;11.43;;;5.57;;
67028;SDS011;53934;52.142;11.738;2022-11-25T11:31:25;12.23;;;5.00;;
67028;SDS011;53934;52.142;11.738;2022-11-25T11:33:59;16.73;;;5.70;;
67028;SDS011;53934;52.142;11.738;2022-11-25T11:36:41;14.38;;;5.13;;
67028;SDS011;53934;52.142;11.738;2022-11-25T11:39:24;12.65;;;4.88;;
67028;SDS011;53934;52.142;11.738;2022-11-25T11:42:03;18.75;;;5.65;;
67028;SDS011;53934;52.142;11.738;2022-11-25T11:44:39;21.33;;;5.38;;
67028;SDS011;53934;52.142;11.738;2022-11-25T11:47:20;9.77;;;4.90;;
67028;SDS011;53934;52.142;11.738;2022-11-25T11:52:30;9.45;;;4.78;;
67028;SDS011;53934;52.142;11.738;2022-11-25T11:55:11;13.85;;;5.57;;
67028;SDS011;53934;52.142;11.738;2022-11-25T11:57:47;14.27;;;5.05;;
67028;SDS011;53934;52.142;11.738;2022-11-25T12:00:25;14.52;;;5.45;;
67028;SDS011;53934;52.142;11.738;2022-11-25T12:02:55;13.25;;;5.13;;
67028;SDS011;53934;52.142;11.738;2022-11-25T12:05:28;16.37;;;5.33;;
67028;SDS011;53934;52.142;11.738;2022-11-25T12:08:00;14.68;;;5.30;;
67028;SDS011;53934;52.142;11.738;2022-11-25T12:10:32;11.30;;;5.45;;
67028;SDS011;53934;52.142;11.738;2022-11-25T12:13:05;20.05;;;5.53;;
67028;SDS011;53934;52.142;11.738;2022-11-25T12:15:42;14.55;;;5.32;;
67028;SDS011;53934;52.142;11.738;2022-11-25T12:18:17;16.17;;;5.70;;
67028;SDS011;53934;52.142;11.738;2022-11-25T12:20:56;11.07;;;5.25;;
67028;SDS011;53934;52.142;11.738;2022-11-25T12:23:28;12.30;;;5.32;;
67028;SDS011;53934;52.142;11.738;2022-11-25T12:26:04;13.38;;;4.72;;
67028;SDS011;53934;52.142;11.738;2022-11-25T12:28:37;15.20;;;5.43;;
67028;SDS011;53934;52.142;11.738;2022-11-25T12:31:10;16.88;;;5.80;;
67028;SDS011;53934;52.142;11.738;2022-11-25T12:33:42;15.70;;;6.63;;
67028;SDS011;53934;52.142;11.738;2022-11-25T12:36:17;19.23;;;5.88;;
67028;SDS011;53934;52.142;11.738;2022-11-25T12:38:53;13.82;;;5.32;;
67028;SDS011;53934;52.142;11.738;2022-11-25T12:41:22;14.02;;;4.88;;
67028;SDS011;53934;52.142;11.738;2022-11-25T12:43:53;19.10;;;5.03;;
67028;SDS011;53934;52.142;11.738;2022-11-25T12:46:27;19.27;;;6.38;;
67028;SDS011;53934;52.142;11.738;2022-11-25T12:48:59;15.65;;;5.45;;
67028;SDS011;53934;52.142;11.738;2022-11-25T12:54:46;15.38;;;5.22;;
67028;SDS011;53934;52.142;11.738;2022-11-25T12:57:45;14.85;;;5.50;;
67028;SDS011;53934;52.142;11.738;2022-11-25T13:00:26;12.85;;;5.65;;
67028;SDS011;53934;52.142;11.738;2022-11-25T13:03:03;11.15;;;5.30;;
67028;SDS011;53934;52.142;11.738;2022-11-25T13:06:15;11.18;;;4.50;;
67028;SDS011;53934;52.142;11.738;2022-11-25T13:08:58;15.00;;;6.28;;
67028;SDS011;53934;52.142;11.738;2022-11-25T13:11:37;19.63;;;8.32;;
67028;SDS011;53934;52.142;11.738;2022-11-25T13:14:24;15.60;;;7.88;;
67028;SDS011;53934;52.142;11.738;2022-11-25T13:16:55;18.77;;;7.68;;
67028;SDS011;53934;52.142;11.738;2022-11-25T13:19:23;15.30;;;6.57;;
67028;SDS011;53934;52.142;11.738;2022-11-25T13:21:56;12.38;;;6.18;;
67028;SDS011;53934;52.142;11.738;2022-11-25T13:24:26;20.08;;;8.30;;
67028;SDS011;53934;52.142;11.738;2022-11-25T13:26:56;16.77;;;6.10;;
67028;SDS011;53934;52.142;11.738;2022-11-25T13:41:37;22.42;;;5.82;;
67028;SDS011;53934;52.142;11.738;2022-11-25T13:44:19;20.45;;;6.65;;
67028;SDS011;53934;52.142;11.738;2022-11-25T13:46:48;14.85;;;5.82;;
67028;SDS011;53934;52.142;11.738;2022-11-25T13:49:24;22.90;;;6.32;;
67028;SDS011;53934;52.142;11.738;2022-11-25T13:51:58;13.07;;;5.95;;
67028;SDS011;53934;52.142;11.738;2022-11-25T13:54:30;17.15;;;7.72;;
67028;SDS011;53934;52.142;11.738;2022-11-25T13:57:13;23.15;;;10.75;;
67028;SDS011;53934;52.142;11.738;2022-11-25T13:59:50;19.73;;;8.43;;
67028;SDS011;53934;52.142;11.738;2022-11-25T14:08:09;18.00;;;6.97;;
67028;SDS011;53934;52.142;11.738;2022-11-25T14:10:44;20.88;;;7.75;;
67028;SDS011;53934;52.142;11.738;2022-11-25T14:13:28;17.50;;;7.18;;
67028;SDS011;53934;52.142;11.738;2022-11-25T14:16:08;16.48;;;7.80;;
67028;SDS011;53934;52.142;11.738;2022-11-25T14:19:02;18.73;;;8.00;;
67028;SDS011;53934;52.142;11.738;2022-11-25T14:21:54;15.75;;;6.85;;
67028;SDS011;53934;52.142;11.738;2022-11-25T14:24:34;18.25;;;7.80;;
67028;SDS011;53934;52.142;11.738;2022-11-25T14:27:02;15.77;;;7.13;;
67028;SDS011;53934;52.142;11.738;2022-11-25T14:29:39;19.88;;;8.43;;
67028;SDS011;53934;52.142;11.738;2022-11-25T14:32:09;18.37;;;7.73;;
67028;SDS011;53934;52.142;11.738;2022-11-25T14:34:40;15.98;;;7.63;;
67028;SDS011;53934;52.142;11.738;2022-11-25T14:37:12;21.27;;;7.65;;
67028;SDS011;53934;52.142;11.738;2022-11-25T14:39:46;15.90;;;6.90;;
67028;SDS011;53934;52.142;11.738;2022-11-25T14:42:18;20.42;;;8.02;;
67028;SDS011;53934;52.142;11.738;2022-11-25T14:44:49;21.02;;;8.57;;
67028;SDS011;53934;52.142;11.738;2022-11-25T14:47:20;16.27;;;6.75;;
67028;SDS011;53934;52.142;11.738;2022-11-25T14:49:48;14.35;;;6.45;;
67028;SDS011;53934;52.142;11.738;2022-11-25T14:52:17;16.92;;;6.70;;
67028;SDS011;53934;52.142;11.738;2022-11-25T14:54:45;11.82;;;7.47;;
67028;SDS011;53934;52.142;11.738;2022-11-25T14:57:13;21.73;;;8.00;;
67028;SDS011;53934;52.142;11.738;2022-11-25T14:59:45;19.27;;;8.93;;
67028;SDS011;53934;52.142;11.738;2022-11-25T15:02:22;19.02;;;8.82;;
67028;SDS011;53934;52.142;11.738;2022-11-25T15:04:50;17.98;;;8.80;;